sensor_id;sensor_type;location;lat;lon;timestamp;temperature;humidity
16128;DHT22;8168;49.036;7.690;2024-01-07T00:00:33;5.20;99.90
16128;DHT22;8168;49.036;7.690;2024-01-07T00:03:04;5.30;99.90
16128;DHT22;8168;49.036;7.690;2024-01-07T00:05:36;5.20;99.90
16128;DHT22;8168;49.036;7.690;2024-01-07T00:08:07;5.20;99.90
16128;DHT22;8168;49.036;7.690;2024-01-07T00:10:38;5.30;99.90
16128;DHT22;8168;49.036;7.690;2024-01-07T00:13:09;5.30;99.90
16128;DHT22;8168;49.036;7.690;2024-01-07T00:15:39;5.30;99.90
16128;DHT22;8168;49.036;7.690;2024-01-07T00:18:10;5.30;99.90
16128;DHT22;8168;49.036;7.690;2024-01-07T00:20:40;5.30;99.90
16128;DHT22;8168;49.036;7.690;2024-01-07T00:23:14;5.30;99.90
16128;DHT22;8168;49.036;7.690;2024-01-07T00:25:44;5.20;99.90
16128;DHT22;8168;49.036;7.690;2024-01-07T00:28:15;5.30;99.90
16128;DHT22;8168;49.036;7.690;2024-01-07T00:30:46;5.30;99.90
16128;DHT22;8168;49.036;7.690;2024-01-07T00:33:16;5.30;99.90
16128;DHT22;8168;49.036;7.690;2024-01-07T00:35:47;5.30;99.90
16128;DHT22;8168;49.036;7.690;2024-01-07T00:38:18;5.30;99.90
16128;DHT22;8168;49.036;7.690;2024-01-07T00:40:48;5.30;99.90
16128;DHT22;8168;49.036;7.690;2024-01-07T00:43:19;5.30;99.90
16128;DHT22;8168;49.036;7.690;2024-01-07T00:45:49;5.30;99.90
16128;DHT22;8168;49.036;7.690;2024-01-07T00:48:20;5.30;99.90
16128;DHT22;8168;49.036;7.690;2024-01-07T00:50:51;5.20;99.90
16128;DHT22;8168;49.036;7.690;2024-01-07T00:53:21;5.30;99.90
16128;DHT22;8168;49.036;7.690;2024-01-07T00:55:52;5.30;99.90
16128;DHT22;8168;49.036;7.690;2024-01-07T00:58:22;5.30;99.90
16128;DHT22;8168;49.036;7.690;2024-01-07T01:00:53;7.40;99.90
16128;DHT22;8168;49.036;7.690;2024-01-07T01:03:24;5.30;99.90
16128;DHT22;8168;49.036;7.690;2024-01-07T01:05:55;5.30;99.90
16128;DHT22;8168;49.036;7.690;2024-01-07T01:08:25;5.30;99.90
16128;DHT22;8168;49.036;7.690;2024-01-07T01:10:56;5.30;99.90
16128;DHT22;8168;49.036;7.690;2024-01-07T01:13:27;5.30;99.90
16128;DHT22;8168;49.036;7.690;2024-01-07T01:15:57;5.40;99.90
16128;DHT22;8168;49.036;7.690;2024-01-07T01:18:28;5.30;99.90
16128;DHT22;8168;49.036;7.690;2024-01-07T01:20:58;5.30;99.90
16128;DHT22;8168;49.036;7.690;2024-01-07T01:23:29;4.80;99.90
16128;DHT22;8168;49.036;7.690;2024-01-07T01:26:00;5.30;99.90
16128;DHT22;8168;49.036;7.690;2024-01-07T01:28:31;5.30;99.90
16128;DHT22;8168;49.036;7.690;2024-01-07T01:31:01;5.30;99.90
16128;DHT22;8168;49.036;7.690;2024-01-07T01:33:32;5.30;99.90
16128;DHT22;8168;49.036;7.690;2024-01-07T01:36:05;5.30;99.90
16128;DHT22;8168;49.036;7.690;2024-01-07T01:38:36;5.30;99.90
16128;DHT22;8168;49.036;7.690;2024-01-07T01:41:07;5.30;99.90
16128;DHT22;8168;49.036;7.690;2024-01-07T01:43:37;5.30;99.90
16128;DHT22;8168;49.036;7.690;2024-01-07T01:46:08;5.30;99.90
16128;DHT22;8168;49.036;7.690;2024-01-07T01:48:40;5.30;99.90
16128;DHT22;8168;49.036;7.690;2024-01-07T01:51:11;5.20;99.90
16128;DHT22;8168;49.036;7.690;2024-01-07T01:53:42;5.20;99.90
16128;DHT22;8168;49.036;7.690;2024-01-07T01:56:13;5.20;99.90
16128;DHT22;8168;49.036;7.690;2024-01-07T01:58:44;5.10;99.90
16128;DHT22;8168;49.036;7.690;2024-01-07T02:01:15;5.20;99.90
16128;DHT22;8168;49.036;7.690;2024-01-07T02:03:46;5.10;99.90
16128;DHT22;8168;49.036;7.690;2024-01-07T02:06:16;5.20;99.90
16128;DHT22;8168;49.036;7.690;2024-01-07T02:08:47;5.20;99.90
16128;DHT22;8168;49.036;7.690;2024-01-07T02:11:20;5.10;99.90
16128;DHT22;8168;49.036;7.690;2024-01-07T02:13:51;5.10;99.90
16128;DHT22;8168;49.036;7.690;2024-01-07T02:23:55;5.00;99.90
16128;DHT22;8168;49.036;7.690;2024-01-07T02:26:25;5.00;99.90
16128;DHT22;8168;49.036;7.690;2024-01-07T02:28:56;5.00;99.90
16128;DHT22;8168;49.036;7.690;2024-01-07T02:31:27;5.00;99.90
16128;DHT22;8168;49.036;7.690;2024-01-07T02:36:28;5.00;99.90
16128;DHT22;8168;49.036;7.690;2024-01-07T02:38:59;4.90;99.90
16128;DHT22;8168;49.036;7.690;2024-01-07T02:41:29;4.90;99.90
16128;DHT22;8168;49.036;7.690;2024-01-07T02:44:00;5.00;99.90
16128;DHT22;8168;49.036;7.690;2024-01-07T02:46:31;5.00;99.90
16128;DHT22;8168;49.036;7.690;2024-01-07T02:49:01;5.00;99.90
16128;DHT22;8168;49.036;7.690;2024-01-07T02:51:32;5.00;99.90
16128;DHT22;8168;49.036;7.690;2024-01-07T02:54:02;4.90;99.90
16128;DHT22;8168;49.036;7.690;2024-01-07T02:59:04;4.90;99.90
16128;DHT22;8168;49.036;7.690;2024-01-07T03:01:35;4.90;99.90
16128;DHT22;8168;49.036;7.690;2024-01-07T03:04:12;4.90;99.90
16128;DHT22;8168;49.036;7.690;2024-01-07T03:39:32;4.50;99.90
16128;DHT22;8168;49.036;7.690;2024-01-07T03:54:40;4.50;99.90
16128;DHT22;8168;49.036;7.690;2024-01-07T03:57:10;4.50;99.90
16128;DHT22;8168;49.036;7.690;2024-01-07T03:59:41;4.50;99.90
16128;DHT22;8168;49.036;7.690;2024-01-07T04:19:52;4.60;99.90
16128;DHT22;8168;49.036;7.690;2024-01-07T04:27:25;4.50;99.90
16128;DHT22;8168;49.036;7.690;2024-01-07T04:29:56;4.50;99.90
16128;DHT22;8168;49.036;7.690;2024-01-07T04:32:27;4.50;99.90
16128;DHT22;8168;49.036;7.690;2024-01-07T04:34:57;4.60;99.90
16128;DHT22;8168;49.036;7.690;2024-01-07T04:37:28;4.60;99.90
16128;DHT22;8168;49.036;7.690;2024-01-07T04:39:59;4.60;99.90
16128;DHT22;8168;49.036;7.690;2024-01-07T04:42:29;4.50;99.90
16128;DHT22;8168;49.036;7.690;2024-01-07T04:45:00;4.50;99.90
16128;DHT22;8168;49.036;7.690;2024-01-07T04:47:32;4.50;99.90
16128;DHT22;8168;49.036;7.690;2024-01-07T04:50:06;4.40;99.90
16128;DHT22;8168;49.036;7.690;2024-01-07T04:55:08;4.40;99.90
16128;DHT22;8168;49.036;7.690;2024-01-07T04:57:39;4.40;99.90
16128;DHT22;8168;49.036;7.690;2024-01-07T05:00:11;4.50;99.90
16128;DHT22;8168;49.036;7.690;2024-01-07T05:02:41;4.50;99.90
16128;DHT22;8168;49.036;7.690;2024-01-07T05:05:12;4.50;99.90
16128;DHT22;8168;49.036;7.690;2024-01-07T05:07:43;4.50;99.90
16128;DHT22;8168;49.036;7.690;2024-01-07T05:10:13;4.50;99.90
16128;DHT22;8168;49.036;7.690;2024-01-07T05:12:44;4.50;99.90
16128;DHT22;8168;49.036;7.690;2024-01-07T05:15:14;4.50;99.90
16128;DHT22;8168;49.036;7.690;2024-01-07T05:20:16;4.50;99.90
16128;DHT22;8168;49.036;7.690;2024-01-07T05:22:47;4.50;99.90
16128;DHT22;8168;49.036;7.690;2024-01-07T05:25:17;4.50;99.90
16128;DHT22;8168;49.036;7.690;2024-01-07T06:00:31;4.30;99.90
16128;DHT22;8168;49.036;7.690;2024-01-07T06:03:05;4.20;99.90
16128;DHT22;8168;49.036;7.690;2024-01-07T06:05:38;4.20;99.90
16128;DHT22;8168;49.036;7.690;2024-01-07T06:08:09;4.20;99.90
16128;DHT22;8168;49.036;7.690;2024-01-07T06:10:41;4.10;99.90
16128;DHT22;8168;49.036;7.690;2024-01-07T06:13:11;4.10;99.90
16128;DHT22;8168;49.036;7.690;2024-01-07T06:15:42;4.10;99.90
16128;DHT22;8168;49.036;7.690;2024-01-07T06:18:13;4.10;99.90
16128;DHT22;8168;49.036;7.690;2024-01-07T06:20:43;5.80;99.90
16128;DHT22;8168;49.036;7.690;2024-01-07T06:23:14;4.20;99.90
16128;DHT22;8168;49.036;7.690;2024-01-07T06:25:44;4.20;99.90
16128;DHT22;8168;49.036;7.690;2024-01-07T06:28:15;4.20;99.90
16128;DHT22;8168;49.036;7.690;2024-01-07T06:30:46;4.30;99.90
16128;DHT22;8168;49.036;7.690;2024-01-07T06:33:16;4.30;99.90
16128;DHT22;8168;49.036;7.690;2024-01-07T06:35:47;4.30;99.90
16128;DHT22;8168;49.036;7.690;2024-01-07T06:38:17;4.30;99.90
16128;DHT22;8168;49.036;7.690;2024-01-07T06:40:48;4.30;99.90
16128;DHT22;8168;49.036;7.690;2024-01-07T06:43:19;4.30;99.90
16128;DHT22;8168;49.036;7.690;2024-01-07T06:45:49;4.30;99.90
16128;DHT22;8168;49.036;7.690;2024-01-07T06:48:20;4.30;99.90
16128;DHT22;8168;49.036;7.690;2024-01-07T06:50:50;4.20;99.90
16128;DHT22;8168;49.036;7.690;2024-01-07T06:55:52;4.30;99.90
16128;DHT22;8168;49.036;7.690;2024-01-07T06:58:23;4.30;99.90
16128;DHT22;8168;49.036;7.690;2024-01-07T07:00:53;4.30;99.90
16128;DHT22;8168;49.036;7.690;2024-01-07T07:03:24;4.30;99.90
16128;DHT22;8168;49.036;7.690;2024-01-07T07:05:56;4.30;99.90
16128;DHT22;8168;49.036;7.690;2024-01-07T07:08:26;4.30;99.90
16128;DHT22;8168;49.036;7.690;2024-01-07T07:10:57;4.20;99.90
16128;DHT22;8168;49.036;7.690;2024-01-07T07:13:27;4.40;99.90
16128;DHT22;8168;49.036;7.690;2024-01-07T07:15:59;4.30;99.90
16128;DHT22;8168;49.036;7.690;2024-01-07T07:18:30;4.40;99.90
16128;DHT22;8168;49.036;7.690;2024-01-07T07:21:00;4.30;99.90
16128;DHT22;8168;49.036;7.690;2024-01-07T07:23:31;4.20;99.90
16128;DHT22;8168;49.036;7.690;2024-01-07T07:26:01;4.20;99.90
16128;DHT22;8168;49.036;7.690;2024-01-07T07:31:03;4.20;99.90
16128;DHT22;8168;49.036;7.690;2024-01-07T07:33:34;4.20;99.90
16128;DHT22;8168;49.036;7.690;2024-01-07T07:36:05;4.20;99.90
16128;DHT22;8168;49.036;7.690;2024-01-07T07:38:35;4.30;99.90
16128;DHT22;8168;49.036;7.690;2024-01-07T07:41:06;4.20;99.90
16128;DHT22;8168;49.036;7.690;2024-01-07T07:43:38;4.20;99.90
16128;DHT22;8168;49.036;7.690;2024-01-07T07:46:08;4.20;99.90
16128;DHT22;8168;49.036;7.690;2024-01-07T07:48:39;4.30;99.90
16128;DHT22;8168;49.036;7.690;2024-01-07T07:51:10;4.20;99.90
16128;DHT22;8168;49.036;7.690;2024-01-07T07:53:41;4.30;99.90
16128;DHT22;8168;49.036;7.690;2024-01-07T07:56:11;4.30;99.90
16128;DHT22;8168;49.036;7.690;2024-01-07T07:58:42;4.30;99.90
16128;DHT22;8168;49.036;7.690;2024-01-07T08:01:13;4.20;99.90
16128;DHT22;8168;49.036;7.690;2024-01-07T08:03:43;4.20;99.90
16128;DHT22;8168;49.036;7.690;2024-01-07T08:06:14;4.20;99.90
16128;DHT22;8168;49.036;7.690;2024-01-07T08:08:44;4.20;99.90
16128;DHT22;8168;49.036;7.690;2024-01-07T08:11:15;4.20;99.90
16128;DHT22;8168;49.036;7.690;2024-01-07T08:13:46;4.20;99.90
16128;DHT22;8168;49.036;7.690;2024-01-07T08:16:16;4.00;99.90
16128;DHT22;8168;49.036;7.690;2024-01-07T08:18:47;4.30;99.90
16128;DHT22;8168;49.036;7.690;2024-01-07T08:21:18;4.20;99.90
16128;DHT22;8168;49.036;7.690;2024-01-07T08:23:49;4.30;99.90
16128;DHT22;8168;49.036;7.690;2024-01-07T08:26:20;4.20;99.90
16128;DHT22;8168;49.036;7.690;2024-01-07T08:28:50;4.30;99.90
16128;DHT22;8168;49.036;7.690;2024-01-07T08:31:21;4.30;99.90
16128;DHT22;8168;49.036;7.690;2024-01-07T08:33:51;4.30;99.90
16128;DHT22;8168;49.036;7.690;2024-01-07T08:36:23;4.40;99.90
16128;DHT22;8168;49.036;7.690;2024-01-07T08:38:53;4.40;99.90
16128;DHT22;8168;49.036;7.690;2024-01-07T08:41:24;4.40;99.90
16128;DHT22;8168;49.036;7.690;2024-01-07T08:43:54;4.40;99.90
16128;DHT22;8168;49.036;7.690;2024-01-07T08:46:25;4.40;99.90
16128;DHT22;8168;49.036;7.690;2024-01-07T08:48:56;4.40;99.90
16128;DHT22;8168;49.036;7.690;2024-01-07T08:53:57;4.40;99.90
16128;DHT22;8168;49.036;7.690;2024-01-07T08:56:29;4.40;99.90
16128;DHT22;8168;49.036;7.690;2024-01-07T08:58:59;4.40;99.90
16128;DHT22;8168;49.036;7.690;2024-01-07T09:01:30;4.40;99.90
16128;DHT22;8168;49.036;7.690;2024-01-07T09:04:01;4.30;99.90
16128;DHT22;8168;49.036;7.690;2024-01-07T09:06:31;4.30;99.90
16128;DHT22;8168;49.036;7.690;2024-01-07T09:11:36;4.30;99.90
16128;DHT22;8168;49.036;7.690;2024-01-07T09:14:07;4.30;99.90
16128;DHT22;8168;49.036;7.690;2024-01-07T09:16:38;4.30;99.90
16128;DHT22;8168;49.036;7.690;2024-01-07T09:19:09;4.30;99.90
16128;DHT22;8168;49.036;7.690;2024-01-07T09:21:39;4.40;99.90
16128;DHT22;8168;49.036;7.690;2024-01-07T09:24:10;4.30;99.90
16128;DHT22;8168;49.036;7.690;2024-01-07T09:26:41;4.30;99.90
16128;DHT22;8168;49.036;7.690;2024-01-07T09:29:12;4.40;99.90
16128;DHT22;8168;49.036;7.690;2024-01-07T09:31:42;4.40;99.90
16128;DHT22;8168;49.036;7.690;2024-01-07T09:34:13;4.40;99.90
16128;DHT22;8168;49.036;7.690;2024-01-07T09:36:44;4.40;99.90
16128;DHT22;8168;49.036;7.690;2024-01-07T09:39:15;4.50;99.90
16128;DHT22;8168;49.036;7.690;2024-01-07T09:41:45;4.50;99.90
16128;DHT22;8168;49.036;7.690;2024-01-07T09:44:16;4.50;99.90
16128;DHT22;8168;49.036;7.690;2024-01-07T09:46:48;4.50;99.90
16128;DHT22;8168;49.036;7.690;2024-01-07T09:49:22;4.40;99.90
16128;DHT22;8168;49.036;7.690;2024-01-07T09:51:55;4.50;99.90
16128;DHT22;8168;49.036;7.690;2024-01-07T09:54:30;4.50;99.90
16128;DHT22;8168;49.036;7.690;2024-01-07T09:57:02;4.50;99.90
16128;DHT22;8168;49.036;7.690;2024-01-07T09:59:34;4.50;99.90
16128;DHT22;8168;49.036;7.690;2024-01-07T10:02:05;4.50;99.90
16128;DHT22;8168;49.036;7.690;2024-01-07T10:04:36;4.50;99.90
16128;DHT22;8168;49.036;7.690;2024-01-07T10:07:06;4.60;99.90
16128;DHT22;8168;49.036;7.690;2024-01-07T10:09:40;4.50;99.90
16128;DHT22;8168;49.036;7.690;2024-01-07T10:12:12;4.60;99.90
16128;DHT22;8168;49.036;7.690;2024-01-07T10:14:43;4.60;99.90
16128;DHT22;8168;49.036;7.690;2024-01-07T10:17:15;4.60;99.90
16128;DHT22;8168;49.036;7.690;2024-01-07T10:19:46;4.60;99.90
16128;DHT22;8168;49.036;7.690;2024-01-07T10:22:17;4.70;99.90
16128;DHT22;8168;49.036;7.690;2024-01-07T10:24:48;4.70;99.90
16128;DHT22;8168;49.036;7.690;2024-01-07T10:27:22;4.60;99.90
16128;DHT22;8168;49.036;7.690;2024-01-07T10:29:53;4.60;99.90
16128;DHT22;8168;49.036;7.690;2024-01-07T10:32:25;4.60;99.90
16128;DHT22;8168;49.036;7.690;2024-01-07T10:35:02;4.70;99.90
16128;DHT22;8168;49.036;7.690;2024-01-07T10:37:36;4.70;99.90
16128;DHT22;8168;49.036;7.690;2024-01-07T10:40:08;4.70;99.90
16128;DHT22;8168;49.036;7.690;2024-01-07T10:42:43;4.60;99.90
16128;DHT22;8168;49.036;7.690;2024-01-07T10:45:15;4.60;99.90
16128;DHT22;8168;49.036;7.690;2024-01-07T10:47:48;4.60;99.90
16128;DHT22;8168;49.036;7.690;2024-01-07T10:50:22;4.60;99.90
16128;DHT22;8168;49.036;7.690;2024-01-07T10:52:58;4.60;99.90
16128;DHT22;8168;49.036;7.690;2024-01-07T10:55:34;4.60;99.90
16128;DHT22;8168;49.036;7.690;2024-01-07T10:58:08;4.60;99.90
16128;DHT22;8168;49.036;7.690;2024-01-07T11:00:40;4.60;99.90
16128;DHT22;8168;49.036;7.690;2024-01-07T11:03:18;4.60;99.90
16128;DHT22;8168;49.036;7.690;2024-01-07T11:05:58;4.60;99.90
16128;DHT22;8168;49.036;7.690;2024-01-07T11:11:26;4.70;99.90
16128;DHT22;8168;49.036;7.690;2024-01-07T11:13:58;4.60;99.90
16128;DHT22;8168;49.036;7.690;2024-01-07T11:16:42;4.60;99.90
16128;DHT22;8168;49.036;7.690;2024-01-07T11:19:20;4.60;99.90
16128;DHT22;8168;49.036;7.690;2024-01-07T11:21:51;4.60;99.90
16128;DHT22;8168;49.036;7.690;2024-01-07T11:24:40;4.60;99.90
16128;DHT22;8168;49.036;7.690;2024-01-07T11:29:42;4.60;99.90
16128;DHT22;8168;49.036;7.690;2024-01-07T11:32:13;4.60;99.90
16128;DHT22;8168;49.036;7.690;2024-01-07T11:34:44;4.60;99.90
16128;DHT22;8168;49.036;7.690;2024-01-07T11:37:20;4.60;99.90
16128;DHT22;8168;49.036;7.690;2024-01-07T11:39:56;4.60;99.90
16128;DHT22;8168;49.036;7.690;2024-01-07T11:42:29;4.60;99.90
16128;DHT22;8168;49.036;7.690;2024-01-07T11:45:02;4.50;99.90
16128;DHT22;8168;49.036;7.690;2024-01-07T11:47:33;4.40;99.90
16128;DHT22;8168;49.036;7.690;2024-01-07T11:50:05;4.40;99.90
16128;DHT22;8168;49.036;7.690;2024-01-07T11:52:35;4.40;99.90
16128;DHT22;8168;49.036;7.690;2024-01-07T11:55:09;4.30;99.90
16128;DHT22;8168;49.036;7.690;2024-01-07T11:57:42;4.30;99.90
16128;DHT22;8168;49.036;7.690;2024-01-07T12:00:13;4.30;99.90
16128;DHT22;8168;49.036;7.690;2024-01-07T12:02:46;4.30;99.90
16128;DHT22;8168;49.036;7.690;2024-01-07T12:05:17;4.30;99.90
16128;DHT22;8168;49.036;7.690;2024-01-07T12:07:48;4.30;99.90
16128;DHT22;8168;49.036;7.690;2024-01-07T12:10:19;4.30;99.90
16128;DHT22;8168;49.036;7.690;2024-01-07T12:12:50;4.30;99.90
16128;DHT22;8168;49.036;7.690;2024-01-07T12:15:23;4.30;99.90
16128;DHT22;8168;49.036;7.690;2024-01-07T12:17:58;4.30;99.90
16128;DHT22;8168;49.036;7.690;2024-01-07T12:20:31;4.30;99.90
16128;DHT22;8168;49.036;7.690;2024-01-07T12:23:09;4.40;99.90
16128;DHT22;8168;49.036;7.690;2024-01-07T12:25:39;4.40;99.90
16128;DHT22;8168;49.036;7.690;2024-01-07T12:28:10;4.30;99.90
16128;DHT22;8168;49.036;7.690;2024-01-07T12:30:41;4.30;99.90
16128;DHT22;8168;49.036;7.690;2024-01-07T12:33:11;4.30;99.90
16128;DHT22;8168;49.036;7.690;2024-01-07T12:35:42;4.30;99.90
16128;DHT22;8168;49.036;7.690;2024-01-07T12:43:15;4.20;99.90
16128;DHT22;8168;49.036;7.690;2024-01-07T12:45:48;4.20;99.90
16128;DHT22;8168;49.036;7.690;2024-01-07T12:50:49;4.10;99.90
16128;DHT22;8168;49.036;7.690;2024-01-07T12:53:20;4.10;99.90
16128;DHT22;8168;49.036;7.690;2024-01-07T12:55:52;3.90;99.90
16128;DHT22;8168;49.036;7.690;2024-01-07T12:58:22;4.10;99.90
16128;DHT22;8168;49.036;7.690;2024-01-07T13:00:53;4.00;99.90
16128;DHT22;8168;49.036;7.690;2024-01-07T13:03:24;3.90;99.90
16128;DHT22;8168;49.036;7.690;2024-01-07T13:05:55;3.90;99.90
16128;DHT22;8168;49.036;7.690;2024-01-07T13:08:26;4.00;99.90
16128;DHT22;8168;49.036;7.690;2024-01-07T13:10:57;4.00;99.90
16128;DHT22;8168;49.036;7.690;2024-01-07T13:13:28;3.90;99.90
16128;DHT22;8168;49.036;7.690;2024-01-07T13:15:59;4.00;99.90
16128;DHT22;8168;49.036;7.690;2024-01-07T13:18:32;3.90;99.90
16128;DHT22;8168;49.036;7.690;2024-01-07T13:21:03;3.90;99.90
16128;DHT22;8168;49.036;7.690;2024-01-07T13:23:34;3.90;99.90
16128;DHT22;8168;49.036;7.690;2024-01-07T13:26:04;4.00;99.90
16128;DHT22;8168;49.036;7.690;2024-01-07T13:28:36;4.00;99.90
16128;DHT22;8168;49.036;7.690;2024-01-07T13:31:08;4.00;99.90
16128;DHT22;8168;49.036;7.690;2024-01-07T13:33:38;4.10;99.90
16128;DHT22;8168;49.036;7.690;2024-01-07T13:36:09;4.00;99.90
16128;DHT22;8168;49.036;7.690;2024-01-07T13:38:41;4.00;99.90
16128;DHT22;8168;49.036;7.690;2024-01-07T13:41:12;3.90;99.90
16128;DHT22;8168;49.036;7.690;2024-01-07T13:43:44;3.90;99.90
16128;DHT22;8168;49.036;7.690;2024-01-07T13:46:15;4.00;99.90
16128;DHT22;8168;49.036;7.690;2024-01-07T13:48:45;4.00;99.90
16128;DHT22;8168;49.036;7.690;2024-01-07T13:51:16;3.90;99.90
16128;DHT22;8168;49.036;7.690;2024-01-07T13:53:46;4.00;99.90
16128;DHT22;8168;49.036;7.690;2024-01-07T13:56:17;3.90;99.90
16128;DHT22;8168;49.036;7.690;2024-01-07T13:58:51;3.90;99.90
16128;DHT22;8168;49.036;7.690;2024-01-07T14:01:22;3.90;99.90
16128;DHT22;8168;49.036;7.690;2024-01-07T14:03:52;3.80;99.90
16128;DHT22;8168;49.036;7.690;2024-01-07T14:06:23;3.80;99.90
16128;DHT22;8168;49.036;7.690;2024-01-07T14:08:54;3.90;99.90
16128;DHT22;8168;49.036;7.690;2024-01-07T14:11:24;3.90;99.90
16128;DHT22;8168;49.036;7.690;2024-01-07T14:13:57;3.80;99.90
16128;DHT22;8168;49.036;7.690;2024-01-07T14:16:28;3.70;99.90
16128;DHT22;8168;49.036;7.690;2024-01-07T14:18:58;3.70;99.90
16128;DHT22;8168;49.036;7.690;2024-01-07T14:21:29;3.70;99.90
16128;DHT22;8168;49.036;7.690;2024-01-07T14:24:00;3.70;99.90
16128;DHT22;8168;49.036;7.690;2024-01-07T14:26:31;3.70;99.90
16128;DHT22;8168;49.036;7.690;2024-01-07T14:29:02;3.60;99.90
16128;DHT22;8168;49.036;7.690;2024-01-07T14:31:34;3.60;99.90
16128;DHT22;8168;49.036;7.690;2024-01-07T14:34:04;3.50;99.90
16128;DHT22;8168;49.036;7.690;2024-01-07T14:36:39;3.60;99.90
16128;DHT22;8168;49.036;7.690;2024-01-07T14:39:11;3.60;99.90
16128;DHT22;8168;49.036;7.690;2024-01-07T14:41:43;3.60;99.90
16128;DHT22;8168;49.036;7.690;2024-01-07T14:44:14;3.80;99.90
16128;DHT22;8168;49.036;7.690;2024-01-07T14:46:45;3.60;99.90
16128;DHT22;8168;49.036;7.690;2024-01-07T14:49:15;3.60;99.90
16128;DHT22;8168;49.036;7.690;2024-01-07T14:51:46;3.60;99.90
16128;DHT22;8168;49.036;7.690;2024-01-07T14:54:17;3.70;99.90
16128;DHT22;8168;49.036;7.690;2024-01-07T14:56:47;3.50;99.90
16128;DHT22;8168;49.036;7.690;2024-01-07T14:59:18;3.60;99.90
16128;DHT22;8168;49.036;7.690;2024-01-07T15:01:49;3.50;99.90
16128;DHT22;8168;49.036;7.690;2024-01-07T15:04:19;3.50;99.90
16128;DHT22;8168;49.036;7.690;2024-01-07T15:06:50;3.50;99.90
16128;DHT22;8168;49.036;7.690;2024-01-07T15:09:21;3.60;99.90
16128;DHT22;8168;49.036;7.690;2024-01-07T15:11:51;3.50;99.90
16128;DHT22;8168;49.036;7.690;2024-01-07T15:14:23;3.50;99.90
16128;DHT22;8168;49.036;7.690;2024-01-07T15:16:54;3.50;99.90
16128;DHT22;8168;49.036;7.690;2024-01-07T15:19:24;3.50;99.90
16128;DHT22;8168;49.036;7.690;2024-01-07T15:21:55;3.50;99.90
16128;DHT22;8168;49.036;7.690;2024-01-07T15:24:27;3.40;99.90
16128;DHT22;8168;49.036;7.690;2024-01-07T15:26:57;3.40;99.90
16128;DHT22;8168;49.036;7.690;2024-01-07T15:29:28;3.40;99.90
16128;DHT22;8168;49.036;7.690;2024-01-07T15:31:59;3.40;99.90
16128;DHT22;8168;49.036;7.690;2024-01-07T15:34:29;3.40;99.90
16128;DHT22;8168;49.036;7.690;2024-01-07T15:37:00;3.40;99.90
16128;DHT22;8168;49.036;7.690;2024-01-07T15:39:31;3.40;99.90
16128;DHT22;8168;49.036;7.690;2024-01-07T15:42:01;3.30;99.90
16128;DHT22;8168;49.036;7.690;2024-01-07T15:44:32;3.30;99.90
16128;DHT22;8168;49.036;7.690;2024-01-07T15:47:04;3.40;99.90
16128;DHT22;8168;49.036;7.690;2024-01-07T15:49:35;3.30;99.90
16128;DHT22;8168;49.036;7.690;2024-01-07T15:52:06;3.30;99.90
16128;DHT22;8168;49.036;7.690;2024-01-07T15:54:37;3.30;99.90
16128;DHT22;8168;49.036;7.690;2024-01-07T15:57:07;3.30;99.90
16128;DHT22;8168;49.036;7.690;2024-01-07T15:59:41;3.20;99.90
16128;DHT22;8168;49.036;7.690;2024-01-07T16:02:12;3.10;99.90
16128;DHT22;8168;49.036;7.690;2024-01-07T16:04:43;3.10;99.90
16128;DHT22;8168;49.036;7.690;2024-01-07T16:07:13;3.20;99.90
16128;DHT22;8168;49.036;7.690;2024-01-07T16:09:44;3.10;99.90
16128;DHT22;8168;49.036;7.690;2024-01-07T16:12:15;3.10;99.90
16128;DHT22;8168;49.036;7.690;2024-01-07T16:14:46;3.10;99.90
16128;DHT22;8168;49.036;7.690;2024-01-07T16:17:18;3.00;99.90
16128;DHT22;8168;49.036;7.690;2024-01-07T16:19:48;3.00;99.90
16128;DHT22;8168;49.036;7.690;2024-01-07T16:22:19;3.10;99.90
16128;DHT22;8168;49.036;7.690;2024-01-07T16:24:49;2.90;99.90
16128;DHT22;8168;49.036;7.690;2024-01-07T16:27:20;2.90;99.90
16128;DHT22;8168;49.036;7.690;2024-01-07T16:29:51;2.90;99.90
16128;DHT22;8168;49.036;7.690;2024-01-07T16:32:22;3.00;99.90
16128;DHT22;8168;49.036;7.690;2024-01-07T16:34:54;2.90;99.90
16128;DHT22;8168;49.036;7.690;2024-01-07T16:37:25;2.90;99.90
16128;DHT22;8168;49.036;7.690;2024-01-07T16:39:55;3.00;99.90
16128;DHT22;8168;49.036;7.690;2024-01-07T16:42:26;3.00;99.90
16128;DHT22;8168;49.036;7.690;2024-01-07T16:44:57;3.10;99.90
16128;DHT22;8168;49.036;7.690;2024-01-07T16:47:28;2.90;99.90
16128;DHT22;8168;49.036;7.690;2024-01-07T16:49:58;2.80;99.90
16128;DHT22;8168;49.036;7.690;2024-01-07T16:52:29;2.80;99.90
16128;DHT22;8168;49.036;7.690;2024-01-07T16:54:59;2.80;99.90
16128;DHT22;8168;49.036;7.690;2024-01-07T16:57:30;2.80;99.90
16128;DHT22;8168;49.036;7.690;2024-01-07T17:00:01;2.90;99.90
16128;DHT22;8168;49.036;7.690;2024-01-07T17:02:33;2.80;99.90
16128;DHT22;8168;49.036;7.690;2024-01-07T17:05:04;2.90;99.90
16128;DHT22;8168;49.036;7.690;2024-01-07T17:07:35;2.80;99.90
16128;DHT22;8168;49.036;7.690;2024-01-07T17:10:06;2.80;99.90
16128;DHT22;8168;49.036;7.690;2024-01-07T17:12:38;2.60;99.90
16128;DHT22;8168;49.036;7.690;2024-01-07T17:15:10;2.60;99.90
16128;DHT22;8168;49.036;7.690;2024-01-07T17:17:43;2.60;99.90
16128;DHT22;8168;49.036;7.690;2024-01-07T17:20:15;2.60;99.90
16128;DHT22;8168;49.036;7.690;2024-01-07T17:22:49;2.60;99.90
16128;DHT22;8168;49.036;7.690;2024-01-07T17:25:19;2.70;99.90
16128;DHT22;8168;49.036;7.690;2024-01-07T17:27:50;2.60;99.90
16128;DHT22;8168;49.036;7.690;2024-01-07T17:30:21;2.50;99.90
16128;DHT22;8168;49.036;7.690;2024-01-07T17:32:56;2.50;99.90
16128;DHT22;8168;49.036;7.690;2024-01-07T17:35:27;2.50;99.90
16128;DHT22;8168;49.036;7.690;2024-01-07T17:37:59;2.40;99.90
16128;DHT22;8168;49.036;7.690;2024-01-07T17:40:30;2.40;99.90
16128;DHT22;8168;49.036;7.690;2024-01-07T17:43:01;2.40;99.90
16128;DHT22;8168;49.036;7.690;2024-01-07T17:45:32;2.40;99.90
16128;DHT22;8168;49.036;7.690;2024-01-07T17:48:04;2.40;99.90
16128;DHT22;8168;49.036;7.690;2024-01-07T17:50:35;2.30;99.90
16128;DHT22;8168;49.036;7.690;2024-01-07T17:53:06;2.30;99.90
16128;DHT22;8168;49.036;7.690;2024-01-07T17:55:41;2.30;99.90
16128;DHT22;8168;49.036;7.690;2024-01-07T17:58:12;2.30;99.90
16128;DHT22;8168;49.036;7.690;2024-01-07T18:00:43;2.30;99.90
16128;DHT22;8168;49.036;7.690;2024-01-07T18:03:13;2.20;99.90
16128;DHT22;8168;49.036;7.690;2024-01-07T18:05:44;2.20;99.90
16128;DHT22;8168;49.036;7.690;2024-01-07T18:08:15;2.30;99.90
16128;DHT22;8168;49.036;7.690;2024-01-07T18:10:46;2.20;99.90
16128;DHT22;8168;49.036;7.690;2024-01-07T18:13:17;2.20;99.90
16128;DHT22;8168;49.036;7.690;2024-01-07T18:15:47;2.10;99.90
16128;DHT22;8168;49.036;7.690;2024-01-07T18:18:18;2.10;99.90
16128;DHT22;8168;49.036;7.690;2024-01-07T18:20:48;2.00;99.90
16128;DHT22;8168;49.036;7.690;2024-01-07T18:23:19;2.00;99.90
16128;DHT22;8168;49.036;7.690;2024-01-07T18:25:50;2.00;99.90
16128;DHT22;8168;49.036;7.690;2024-01-07T18:28:21;1.90;99.90
16128;DHT22;8168;49.036;7.690;2024-01-07T18:30:52;1.90;99.90
16128;DHT22;8168;49.036;7.690;2024-01-07T18:33:22;1.80;99.90
16128;DHT22;8168;49.036;7.690;2024-01-07T18:35:55;1.80;99.90
16128;DHT22;8168;49.036;7.690;2024-01-07T18:38:25;1.70;99.90
16128;DHT22;8168;49.036;7.690;2024-01-07T18:40:56;1.70;99.90
16128;DHT22;8168;49.036;7.690;2024-01-07T18:43:26;1.70;99.90
16128;DHT22;8168;49.036;7.690;2024-01-07T18:45:57;1.60;99.90
16128;DHT22;8168;49.036;7.690;2024-01-07T18:48:27;1.60;99.90